Time;durP1;ratioP1;P1;durP2;ratioP2;P2;SDS_P1;SDS_P2;PMS_P1;PMS_P2;Temp;Humidity;BMP_temperature;BMP_pressure;BME280_temperature;BME280_humidity;BME280_pressure;Samples;Min_cycle;Max_cycle;Signal;HPM_P1;HPM_P2
2021/07/23 00:02:04;;;;;;;7.80;6.93;;;;;;;17.56;62.00;101577.50;5040130;28;20422;-67
2021/07/23 00:04:29;;;;;;;9.20;6.80;;;;;;;17.88;61.44;101571.13;5040449;28;20229;-67
2021/07/23 00:06:54;;;;;;;7.90;7.10;;;;;;;17.79;61.59;101570.31;5040175;28;20249;-67
2021/07/23 00:09:20;;;;;;;8.73;6.23;;;;;;;17.97;61.22;101579.03;5039985;28;20185;-69
2021/07/23 00:11:45;;;;;;;10.83;6.60;;;;;;;18.11;60.80;101576.25;5040375;28;20170;-68
2021/07/23 00:14:10;;;;;;;7.37;6.30;;;;;;;18.08;60.83;101581.56;5039815;28;20495;-67
2021/07/23 00:16:36;;;;;;;9.43;6.53;;;;;;;18.15;60.85;101584.13;5039355;28;20528;-67
2021/07/23 00:19:03;;;;;;;9.83;7.90;;;;;;;18.32;60.51;101575.19;5047914;28;20524;-67
2021/07/23 00:21:28;;;;;;;7.87;6.37;;;;;;;17.97;61.58;101581.66;5039046;28;20178;-68
2021/07/23 00:23:54;;;;;;;8.60;7.00;;;;;;;18.15;61.04;101573.56;5039410;28;20907;-69
2021/07/23 00:26:19;;;;;;;8.27;6.40;;;;;;;17.99;61.17;101574.59;5039324;28;20174;-69
2021/07/23 00:28:45;;;;;;;9.87;7.80;;;;;;;18.31;60.52;101574.31;5039554;28;20177;-69
2021/07/23 00:31:11;;;;;;;7.63;6.80;;;;;;;18.16;60.53;101572.69;5050684;28;20496;-70
2021/07/23 00:33:36;;;;;;;7.50;6.80;;;;;;;18.38;60.06;101572.50;5059286;28;20445;-69
2021/07/23 00:36:01;;;;;;;6.63;6.03;;;;;;;18.38;59.69;101577.78;5059453;28;20527;-69
2021/07/23 00:38:27;;;;;;;9.20;6.30;;;;;;;18.34;60.30;101569.00;5059580;28;20201;-69
2021/07/23 00:40:52;;;;;;;7.10;6.40;;;;;;;18.20;60.96;101570.00;5059689;28;20177;-68
2021/07/23 00:43:17;;;;;;;10.23;6.40;;;;;;;18.20;60.98;101576.19;5059058;28;20220;-71
2021/07/23 00:45:43;;;;;;;8.07;7.27;;;;;;;18.03;61.59;101571.03;5059107;28;20225;-70
2021/07/23 00:48:08;;;;;;;7.63;6.87;;;;;;;18.06;61.56;101580.69;5051312;28;20536;-69
2021/07/23 00:50:34;;;;;;;7.40;6.43;;;;;;;17.96;61.58;101572.84;5039098;28;20166;-68
2021/07/23 00:52:59;;;;;;;9.63;6.77;;;;;;;18.40;60.69;101559.28;5038520;28;20467;-67
2021/07/23 00:55:25;;;;;;;7.73;6.40;;;;;;;18.29;60.96;101560.28;5040207;28;20221;-68
2021/07/23 00:57:51;;;;;;;7.00;6.13;;;;;;;18.23;61.19;101559.44;5058877;28;20287;-68
2021/07/23 01:00:17;;;;;;;7.17;6.40;;;;;;;18.11;61.68;101565.72;5058210;28;20412;-68
2021/07/23 01:02:43;;;;;;;8.90;6.43;;;;;;;18.24;61.23;101556.78;5059234;28;20858;-68
2021/07/23 01:05:09;;;;;;;10.47;6.60;;;;;;;18.14;61.36;101563.03;5058059;28;20166;-69
2021/07/23 01:07:35;;;;;;;7.60;6.90;;;;;;;18.39;60.70;101554.88;5057961;28;20238;-69
2021/07/23 01:10:01;;;;;;;7.00;6.40;;;;;;;18.48;60.24;101558.31;5059040;28;20888;-67
2021/07/23 01:12:28;;;;;;;8.40;6.60;;;;;;;18.37;60.74;101556.69;5058561;28;20432;-68
2021/07/23 01:14:54;;;;;;;8.40;6.60;;;;;;;18.54;60.28;101548.56;5058630;28;20201;-69
2021/07/23 01:17:20;;;;;;;7.97;6.10;;;;;;;18.59;60.25;101554.69;5042602;28;20429;-68
2021/07/23 01:19:51;;;;;;;7.33;6.40;;;;;;;18.30;61.21;101555.84;5038015;28;20429;-68
2021/07/23 01:22:18;;;;;;;9.00;7.07;;;;;;;17.88;62.72;101564.09;5038110;28;20226;-67
2021/07/23 01:24:44;;;;;;;7.20;6.50;;;;;;;18.00;62.40;101549.97;5037899;28;20467;-67
2021/07/23 01:27:09;;;;;;;7.50;6.80;;;;;;;18.67;60.30;101555.47;5037522;28;20773;-67
2021/07/23 01:29:34;;;;;;;6.97;6.37;;;;;;;18.60;60.58;101552.00;5038123;28;20188;-69
2021/07/23 01:32:00;;;;;;;8.90;7.40;;;;;;;18.47;60.62;101546.00;5042134;28;20174;-67
2021/07/23 01:34:25;;;;;;;7.60;6.90;;;;;;;18.26;60.87;101554.13;5038226;28;20185;-68
2021/07/23 01:36:50;;;;;;;6.83;6.20;;;;;;;18.49;60.55;101549.50;5041686;28;20227;-68
2021/07/23 01:39:17;;;;;;;6.87;6.23;;;;;;;18.63;59.38;101548.47;5058191;28;20187;-68
2021/07/23 01:41:43;;;;;;;7.30;6.70;;;;;;;18.62;59.85;101542.31;5058119;28;20260;-68
2021/07/23 01:44:09;;;;;;;10.20;7.23;;;;;;;18.54;59.75;101538.91;5055119;28;20570;-68
2021/07/23 01:46:35;;;;;;;8.03;6.67;;;;;;;18.79;59.21;101547.41;5058459;28;20264;-68
2021/07/23 01:49:00;;;;;;;8.73;6.60;;;;;;;18.40;61.35;101535.53;5057461;28;20395;-69
2021/07/23 01:51:25;;;;;;;8.77;6.83;;;;;;;18.63;60.36;101548.47;5058085;28;20205;-68
2021/07/23 01:53:51;;;;;;;8.00;7.20;;;;;;;18.17;61.97;101548.06;5057399;28;20205;-68
2021/07/23 01:56:16;;;;;;;9.90;7.43;;;;;;;18.54;61.68;101541.53;5038613;28;20182;-68
2021/07/23 01:58:41;;;;;;;11.97;7.90;;;;;;;18.34;63.00;101536.47;5038079;28;20426;-66
2021/07/23 02:01:07;;;;;;;9.83;8.70;;;;;;;17.90;65.02;101549.13;5037549;28;20205;-67
2021/07/23 02:03:34;;;;;;;9.80;8.50;;;;;;;18.05;65.05;101545.53;5037613;28;20472;-66
2021/07/23 02:05:59;;;;;;;10.80;9.57;;;;;;;17.97;66.31;101542.94;5037835;28;20174;-66
2021/07/23 02:08:24;;;;;;;12.73;9.13;;;;;;;17.86;67.21;101539.50;5038117;28;20424;-68
2021/07/23 02:10:49;;;;;;;10.40;9.33;;;;;;;17.91;66.42;101540.31;5037786;28;20451;-68
2021/07/23 02:13:15;;;;;;;11.10;9.30;;;;;;;17.80;67.35;101536.91;5037650;28;20185;-67
2021/07/23 02:15:41;;;;;;;11.93;10.60;;;;;;;18.05;66.22;101534.97;5038042;28;20180;-67
2021/07/23 02:18:07;;;;;;;12.73;10.80;;;;;;;17.99;66.64;101540.28;5038060;28;20488;-67
2021/07/23 02:20:32;;;;;;;12.20;10.00;;;;;;;17.94;67.06;101540.34;5037754;28;20413;-67
2021/07/23 02:22:57;;;;;;;12.40;10.80;;;;;;;17.66;68.13;101540.50;5037457;28;20232;-70
2021/07/23 02:25:23;;;;;;;12.23;11.00;;;;;;;17.72;68.17;101542.22;5037659;28;20174;-69
2021/07/23 02:27:48;;;;;;;13.10;10.43;;;;;;;17.82;67.71;101532.50;5037816;28;20181;-69
2021/07/23 02:30:13;;;;;;;12.13;10.33;;;;;;;17.89;67.03;101534.19;5045529;28;20237;-69
2021/07/23 02:32:39;;;;;;;13.33;11.17;;;;;;;17.67;68.09;101533.47;5057213;28;20191;-70
2021/07/23 02:35:04;;;;;;;12.60;9.97;;;;;;;17.66;67.75;101529.97;5056813;28;20187;-69
2021/07/23 02:37:30;;;;;;;11.73;10.30;;;;;;;17.82;67.15;101532.50;5057325;28;20535;-69
2021/07/23 02:39:55;;;;;;;14.10;10.20;;;;;;;17.55;68.04;101530.91;5058713;28;20197;-68
2021/07/23 02:42:21;;;;;;;11.17;9.93;;;;;;;17.70;67.79;101528.19;5041999;28;20524;-68
2021/07/23 02:44:46;;;;;;;13.97;10.20;;;;;;;17.44;68.71;101531.88;5041374;28;20210;-67
2021/07/23 02:47:11;;;;;;;14.67;10.57;;;;;;;17.64;67.70;101534.38;5059305;28;20597;-68
2021/07/23 02:49:36;;;;;;;10.90;9.03;;;;;;;17.76;67.33;101532.53;5061925;28;20170;-67
2021/07/23 02:52:02;;;;;;;9.33;8.40;;;;;;;17.68;67.76;101529.94;5061442;28;20456;-67
2021/07/23 02:54:27;;;;;;;12.10;9.17;;;;;;;17.59;67.68;101532.63;5061111;28;20173;-67
2021/07/23 02:56:53;;;;;;;11.10;9.10;;;;;;;17.94;67.47;101523.63;5061696;28;20261;-68
2021/07/23 02:59:18;;;;;;;11.87;8.77;;;;;;;17.82;67.02;101532.50;5061394;28;20189;-69
2021/07/23 03:01:44;;;;;;;9.47;8.40;;;;;;;18.09;66.42;101527.88;5061368;28;20201;-69
2021/07/23 03:04:09;;;;;;;9.83;8.17;;;;;;;17.93;66.75;101527.19;5061094;28;20509;-67
2021/07/23 03:06:34;;;;;;;10.60;9.50;;;;;;;17.79;67.65;101528.13;5061203;28;20169;-68
2021/07/23 03:08:59;;;;;;;8.97;8.00;;;;;;;17.70;67.54;101525.56;5060324;28;20181;-67
2021/07/23 03:11:25;;;;;;;11.70;8.50;;;;;;;17.78;67.30;101534.28;5061301;28;20454;-67
2021/07/23 03:13:50;;;;;;;13.13;8.77;;;;;;;17.46;68.50;101524.81;5061001;28;20445;-67
2021/07/23 03:16:15;;;;;;;11.97;8.40;;;;;;;17.72;67.77;101523.75;5061034;28;20178;-68
2021/07/23 03:18:42;;;;;;;9.43;8.47;;;;;;;17.68;68.06;101524.66;5061046;28;20212;-70
2021/07/23 03:21:08;;;;;;;9.20;8.27;;;;;;;17.85;67.79;101521.91;5060561;28;20173;-68
2021/07/23 03:23:33;;;;;;;9.03;7.87;;;;;;;17.46;69.12;101518.69;5060545;28;20533;-68
2021/07/23 03:25:59;;;;;;;12.00;8.27;;;;;;;17.70;68.30;101528.19;5061135;28;20503;-67
2021/07/23 03:28:24;;;;;;;11.83;8.47;;;;;;;17.71;68.04;101526.41;5060950;28;20601;-67
2021/07/23 03:30:49;;;;;;;12.13;9.07;;;;;;;17.79;68.02;101520.22;5059882;28;20200;-66
2021/07/23 03:33:15;;;;;;;8.40;7.50;;;;;;;17.66;68.07;101516.78;5061179;28;20162;-67
2021/07/23 03:35:40;;;;;;;9.70;8.70;;;;;;;17.65;68.24;101515.03;5060824;28;20578;-67
2021/07/23 03:38:05;;;;;;;11.03;8.33;;;;;;;17.79;68.20;101511.41;5042898;28;20190;-67
2021/07/23 03:40:31;;;;;;;9.33;8.37;;;;;;;17.63;68.50;101511.53;5041212;28;20299;-67
2021/07/23 03:42:56;;;;;;;10.93;8.37;;;;;;;17.85;68.10;101506.94;5045359;28;20206;-67
2021/07/23 03:45:21;;;;;;;9.33;8.50;;;;;;;17.95;67.52;101513.06;5068663;28;20208;-67
2021/07/23 03:47:47;;;;;;;11.70;8.30;;;;;;;17.94;67.77;101510.44;5075471;28;20535;-67
2021/07/23 03:50:12;;;;;;;9.07;8.17;;;;;;;17.82;67.93;101507.00;5060374;28;20181;-66
2021/07/23 03:52:37;;;;;;;9.80;8.27;;;;;;;17.81;68.31;101512.28;5059601;28;20165;-66
2021/07/23 03:55:03;;;;;;;15.33;9.23;;;;;;;17.94;67.90;101505.16;5060638;28;20404;-66
2021/07/23 03:57:29;;;;;;;11.20;8.10;;;;;;;17.91;68.09;101510.44;5060250;28;20181;-66
2021/07/23 03:59:54;;;;;;;9.33;8.20;;;;;;;18.21;67.11;101504.03;5057618;28;20410;-66
2021/07/23 04:02:19;;;;;;;7.47;6.77;;;;;;;18.01;67.56;101513.00;5041400;28;20216;-66
2021/07/23 04:04:44;;;;;;;8.73;7.83;;;;;;;17.89;67.61;101521.00;5040042;28;20313;-66
2021/07/23 04:07:10;;;;;;;9.40;7.70;;;;;;;18.16;67.16;101512.00;5051561;28;20209;-66
2021/07/23 04:09:35;;;;;;;10.13;7.97;;;;;;;18.06;67.35;101515.59;5054415;28;20456;-66
2021/07/23 04:12:00;;;;;;;10.50;7.60;;;;;;;18.18;67.03;101514.63;5065565;28;20498;-66
2021/07/23 04:14:26;;;;;;;8.90;8.10;;;;;;;18.05;67.60;101520.88;5079868;28;20527;-66
2021/07/23 04:16:51;;;;;;;10.63;8.23;;;;;;;18.16;67.28;101508.50;5080491;28;20181;-66
2021/07/23 04:19:17;;;;;;;9.83;7.73;;;;;;;18.20;67.36;101512.84;5059548;28;20185;-65
2021/07/23 04:21:42;;;;;;;9.23;7.80;;;;;;;17.90;68.28;101513.94;5051005;28;20180;-66
2021/07/23 04:24:08;;;;;;;11.87;7.40;;;;;;;18.17;66.95;101510.22;5045817;28;20316;-66
2021/07/23 04:26:34;;;;;;;9.60;8.17;;;;;;;18.16;67.25;101511.13;5038918;28;20297;-66
2021/07/23 04:28:59;;;;;;;7.90;7.10;;;;;;;18.14;67.06;101510.25;5039670;28;20171;-66
2021/07/23 04:31:25;;;;;;;8.23;7.43;;;;;;;18.05;68.03;101502.41;5056486;28;20177;-65
2021/07/23 04:33:50;;;;;;;9.23;7.50;;;;;;;18.32;66.26;101511.81;5039175;28;20269;-66
2021/07/23 04:36:15;;;;;;;10.03;7.77;;;;;;;18.21;67.21;101508.44;5039735;28;20201;-66
2021/07/23 04:38:41;;;;;;;10.33;8.67;;;;;;;18.13;67.26;101513.78;5040056;28;20194;-66
2021/07/23 04:41:06;;;;;;;9.90;7.80;;;;;;;18.38;66.25;101511.78;5039802;28;20220;-66
2021/07/23 04:43:39;;;;;;;9.97;8.03;;;;;;;18.66;65.58;101506.22;5039314;28;20212;-66
2021/07/23 04:46:07;;;;;;;8.60;7.70;;;;;;;18.42;66.05;101518.78;5039976;28;20217;-67
2021/07/23 04:48:33;;;;;;;9.57;7.70;;;;;;;18.26;65.61;101523.31;5039407;28;20391;-67
2021/07/23 04:51:02;;;;;;;11.10;8.13;;;;;;;18.39;65.45;101517.91;5039303;28;20475;-67
2021/07/23 04:53:27;;;;;;;9.00;8.07;;;;;;;18.24;65.07;101516.31;5052450;28;20177;-66
2021/07/23 04:55:54;;;;;;;7.90;7.10;;;;;;;18.28;64.87;101515.38;5059189;28;20422;-66
2021/07/23 04:58:19;;;;;;;8.30;7.50;;;;;;;18.15;65.71;101514.66;5044671;28;20173;-65
2021/07/23 05:00:45;;;;;;;8.03;7.00;;;;;;;18.56;63.80;101518.63;5055133;28;20491;-65
2021/07/23 05:03:10;;;;;;;9.30;6.90;;;;;;;18.49;63.91;101516.94;5063385;28;20283;-66
2021/07/23 05:05:39;;;;;;;10.47;7.30;;;;;;;18.55;62.94;101513.34;5078748;28;20196;-66
2021/07/23 05:08:05;;;;;;;12.90;8.07;;;;;;;18.32;63.31;101514.47;5064524;28;20189;-65
2021/07/23 05:10:30;;;;;;;17.77;14.90;;;;;;;18.46;62.50;101514.34;5058752;28;20439;-65
2021/07/23 05:12:56;;;;;;;6.97;6.00;;;;;;;18.44;62.44;101518.75;5058699;28;20169;-66
2021/07/23 05:15:21;;;;;;;6.93;6.20;;;;;;;18.28;63.36;101511.00;5052658;28;20560;-65
2021/07/23 05:17:46;;;;;;;9.60;6.23;;;;;;;18.17;63.20;101507.56;5078569;28;20169;-65
2021/07/23 05:20:12;;;;;;;8.50;6.73;;;;;;;18.03;63.73;101520.91;5078463;28;20168;-65
2021/07/23 05:22:38;;;;;;;8.23;6.97;;;;;;;17.95;64.05;101522.75;5078310;28;20221;-65
2021/07/23 05:25:04;;;;;;;11.07;6.63;;;;;;;18.09;64.10;101519.97;5078457;28;20498;-66
2021/07/23 05:27:30;;;;;;;8.20;6.20;;;;;;;17.54;65.03;101522.13;5078304;28;20461;-66
2021/07/23 05:29:55;;;;;;;7.30;5.50;;;;;;;17.71;64.79;101523.78;5078287;28;20419;-66
2021/07/23 05:32:21;;;;;;;7.60;5.57;;;;;;;18.13;63.78;101513.78;5060958;28;20190;-66
2021/07/23 05:34:46;;;;;;;7.73;5.67;;;;;;;17.99;63.99;101520.06;5060541;28;20540;-66
2021/07/23 05:37:11;;;;;;;9.23;6.97;;;;;;;18.14;63.65;101515.53;5038511;28;20190;-67
2021/07/23 05:39:41;;;;;;;9.87;6.80;;;;;;;18.23;63.44;101519.88;5038487;28;20177;-67
2021/07/23 05:42:06;;;;;;;7.43;6.03;;;;;;;18.05;63.88;101524.44;5038550;28;20181;-67
2021/07/23 05:44:32;;;;;;;10.93;6.33;;;;;;;18.55;62.23;101511.59;5037921;28;20464;-67
2021/07/23 05:47:00;;;;;;;6.30;5.70;;;;;;;18.41;62.30;101510.88;5038215;28;20444;-67
2021/07/23 05:49:26;;;;;;;7.07;5.87;;;;;;;18.66;60.95;101504.44;5043849;28;20599;-67
2021/07/23 05:51:52;;;;;;;5.80;5.20;;;;;;;18.73;60.50;101502.59;5051585;28;20444;-67
2021/07/23 05:54:17;;;;;;;5.60;5.00;;;;;;;18.97;59.42;101505.81;5042046;28;20420;-67
2021/07/23 05:56:42;;;;;;;5.90;5.30;;;;;;;18.55;61.00;101505.44;5038917;28;20494;-66
2021/07/23 05:59:08;;;;;;;6.00;5.40;;;;;;;18.54;61.55;101511.59;5047426;28;20181;-67
2021/07/23 06:01:33;;;;;;;8.07;5.83;;;;;;;18.49;61.09;101506.38;5041512;28;20583;-67
2021/07/23 06:03:59;;;;;;;7.50;5.40;;;;;;;18.99;60.02;101506.69;5037718;28;20189;-67
2021/07/23 06:06:24;;;;;;;8.40;5.47;;;;;;;18.89;60.31;101505.94;5039719;28;20206;-67
2021/07/23 06:08:50;;;;;;;6.80;5.60;;;;;;;19.08;60.13;101506.59;5041542;28;20528;-66
2021/07/23 06:11:15;;;;;;;7.57;5.23;;;;;;;18.59;60.54;101513.31;5053445;28;20237;-67
2021/07/23 06:13:40;;;;;;;5.80;5.20;;;;;;;18.60;60.53;101514.19;5043060;28;20228;-67
2021/07/23 06:16:07;;;;;;;6.20;5.60;;;;;;;18.52;60.54;101512.50;5037269;28;20429;-67
2021/07/23 06:18:33;;;;;;;6.53;5.60;;;;;;;18.48;61.35;101518.72;5043650;28;20589;-66
2021/07/23 06:20:58;;;;;;;6.50;5.20;;;;;;;18.35;61.06;101517.09;5057202;28;20470;-67
2021/07/23 06:23:23;;;;;;;8.20;6.03;;;;;;;18.63;59.89;101516.78;5046574;28;20245;-67
2021/07/23 06:25:50;;;;;;;7.77;4.90;;;;;;;18.85;59.58;101513.00;5037645;28;20193;-67
2021/07/23 06:28:15;;;;;;;7.47;5.67;;;;;;;18.64;60.10;101524.69;5037385;28;20515;-66
2021/07/23 06:30:40;;;;;;;5.53;5.03;;;;;;;18.43;60.87;101520.53;5048392;28;20174;-67
2021/07/23 06:33:06;;;;;;;5.70;5.10;;;;;;;18.67;60.22;101513.22;5037357;28;20173;-69
2021/07/23 06:35:32;;;;;;;5.70;5.00;;;;;;;18.63;60.18;101507.13;5076382;28;20184;-70
2021/07/23 06:37:58;;;;;;;7.33;5.37;;;;;;;18.78;59.79;101516.63;5077070;28;20267;-69
2021/07/23 06:40:23;;;;;;;8.27;6.37;;;;;;;19.06;59.05;101516.28;5055044;28;20523;-71
2021/07/23 06:42:48;;;;;;;7.33;5.20;;;;;;;18.79;59.77;101512.19;5036887;28;20264;-70
2021/07/23 06:45:14;;;;;;;7.00;5.37;;;;;;;18.98;59.32;101513.75;5037285;28;20178;-70
2021/07/23 06:47:39;;;;;;;7.93;5.63;;;;;;;18.55;60.89;101518.63;5037021;28;20174;-68
2021/07/23 06:50:05;;;;;;;6.90;6.20;;;;;;;18.64;60.65;101521.19;5038710;28;20635;-68
2021/07/23 06:52:30;;;;;;;9.00;6.33;;;;;;;18.61;60.34;101519.44;5044364;28;20177;-69
2021/07/23 06:54:55;;;;;;;8.97;6.37;;;;;;;18.75;58.93;101516.63;5057209;28;20177;-69
2021/07/23 06:57:21;;;;;;;11.27;5.73;;;;;;;18.86;58.82;101519.16;5053030;28;20182;-69
2021/07/23 06:59:47;;;;;;;10.23;6.47;;;;;;;18.88;59.01;101524.44;5052441;28;20185;-68
2021/07/23 07:02:13;;;;;;;10.63;6.47;;;;;;;19.15;58.51;101526.72;5037335;28;20228;-69
2021/07/23 07:04:38;;;;;;;8.93;5.77;;;;;;;19.12;58.13;101515.31;5036770;28;20464;-68
2021/07/23 07:07:07;;;;;;;6.83;5.53;;;;;;;18.96;59.32;101525.25;5041813;28;20517;-69
2021/07/23 07:09:33;;;;;;;10.57;6.00;;;;;;;18.85;59.30;101522.69;5039978;28;20182;-70
2021/07/23 07:11:59;;;;;;;8.50;5.60;;;;;;;18.53;60.16;101526.59;5042632;28;20427;-70
2021/07/23 07:14:25;;;;;;;6.77;6.17;;;;;;;18.88;59.17;101527.06;5039137;28;20316;-71
2021/07/23 07:16:52;;;;;;;7.47;6.67;;;;;;;19.37;58.19;101526.44;5038349;28;20174;-69
2021/07/23 07:19:18;;;;;;;6.20;5.60;;;;;;;18.99;58.85;101526.06;5037173;28;20443;-69
2021/07/23 07:21:49;;;;;;;6.20;5.30;;;;;;;18.79;59.71;101518.34;5038064;28;20543;-69
2021/07/23 07:24:18;;;;;;;7.47;5.97;;;;;;;19.02;59.08;101531.31;5036599;28;20230;-69
2021/07/23 07:26:45;;;;;;;7.20;5.77;;;;;;;18.65;60.09;101538.78;5042943;28;20440;-70
2021/07/23 07:29:11;;;;;;;7.77;5.90;;;;;;;18.35;61.41;101547.00;5050054;28;20414;-69
2021/07/23 07:31:37;;;;;;;8.37;6.00;;;;;;;18.73;60.83;101549.28;5057023;28;20426;-69
2021/07/23 07:34:02;;;;;;;6.40;5.80;;;;;;;18.84;60.35;101540.31;5059019;28;20523;-67
2021/07/23 07:36:28;;;;;;;7.70;6.17;;;;;;;19.02;60.88;101539.25;5059597;28;20498;-69
2021/07/23 07:38:53;;;;;;;10.67;7.87;;;;;;;19.13;60.02;101544.41;5055548;28;20186;-69
2021/07/23 07:41:19;;;;;;;7.17;6.47;;;;;;;18.94;60.65;101542.88;5056048;28;20213;-69
2021/07/23 07:43:45;;;;;;;10.93;9.93;;;;;;;19.45;59.54;101539.56;5055383;28;20295;-68
2021/07/23 07:46:10;;;;;;;7.70;6.10;;;;;;;19.32;59.00;101541.50;5058520;28;20423;-70
2021/07/23 07:48:35;;;;;;;6.80;5.50;;;;;;;18.73;60.46;101533.41;5055973;28;20469;-69
2021/07/23 07:51:01;;;;;;;7.30;6.60;;;;;;;18.54;61.09;101540.66;5056434;28;20190;-68
2021/07/23 07:53:26;;;;;;;9.67;6.40;;;;;;;19.39;58.83;101534.34;5054010;28;20502;-69
2021/07/23 07:55:51;;;;;;;6.10;5.50;;;;;;;19.15;59.03;101532.03;5057185;28;20181;-69
2021/07/23 07:58:17;;;;;;;7.63;5.97;;;;;;;19.27;58.90;101536.28;5058713;28;20185;-70
2021/07/23 08:00:42;;;;;;;8.20;6.53;;;;;;;19.58;58.09;101534.94;5055419;28;20189;-69
2021/07/23 08:03:07;;;;;;;6.50;5.90;;;;;;;19.40;58.63;101533.47;5054300;28;20267;-67
2021/07/23 08:05:33;;;;;;;18.97;17.00;;;;;;;19.35;58.89;101539.69;5055427;28;20260;-68
2021/07/23 08:07:59;;;;;;;8.20;6.87;;;;;;;19.41;58.72;101525.50;5069274;28;20482;-67
2021/07/23 08:10:28;;;;;;;9.70;6.73;;;;;;;19.31;58.64;101537.97;5043609;28;20268;-67
2021/07/23 08:12:53;;;;;;;8.83;6.63;;;;;;;19.64;57.37;101534.88;5038969;28;20379;-67
2021/07/23 08:15:19;;;;;;;7.30;6.03;;;;;;;19.23;58.19;101533.69;5037684;28;20409;-67
2021/07/23 08:17:44;;;;;;;7.30;6.10;;;;;;;19.46;57.63;101525.44;5039790;28;20232;-68
2021/07/23 08:20:10;;;;;;;8.57;5.80;;;;;;;19.49;57.75;101528.91;5039542;28;20892;-67
2021/07/23 08:22:36;;;;;;;8.43;5.53;;;;;;;19.69;57.19;101528.59;5038957;28;20225;-69
2021/07/23 08:25:01;;;;;;;7.80;6.37;;;;;;;18.72;59.83;101529.03;5039687;28;20297;-69
2021/07/23 08:27:28;;;;;;;7.73;6.93;;;;;;;19.60;57.89;101520.81;5039720;28;20441;-69
2021/07/23 08:29:53;;;;;;;8.63;6.80;;;;;;;20.01;56.32;101518.41;5040261;28;20178;-69
2021/07/23 08:32:18;;;;;;;8.30;6.50;;;;;;;19.22;58.25;101526.66;5040534;28;20532;-68
2021/07/23 08:34:44;;;;;;;7.10;6.50;;;;;;;19.89;56.45;101518.63;5039439;28;20552;-69
2021/07/23 08:37:09;;;;;;;8.73;6.60;;;;;;;19.88;57.12;101516.88;5040925;28;20445;-69
2021/07/23 08:39:35;;;;;;;6.90;6.07;;;;;;;20.11;55.98;101525.28;5050944;28;20182;-69
2021/07/23 08:42:29;;;;;;;7.20;6.50;;;;;;;20.06;56.31;101516.56;5040757;28;20201;-69
2021/07/23 08:44:57;;;;;;;8.83;5.93;;;;;;;20.12;56.35;101523.50;5051347;28;20221;-70
2021/07/23 08:47:23;;;;;;;7.27;6.50;;;;;;;20.09;57.07;101527.09;5044230;28;20440;-70
2021/07/23 08:49:48;;;;;;;8.00;6.50;;;;;;;20.12;56.82;101526.16;5040332;28;20419;-70
2021/07/23 08:52:14;;;;;;;8.57;6.33;;;;;;;20.30;55.61;101520.53;5055533;28;20213;-70
2021/07/23 08:54:39;;;;;;;7.10;6.40;;;;;;;20.27;55.61;101517.97;5038724;28;20166;-70
2021/07/23 08:57:08;;;;;;;6.77;6.07;;;;;;;20.58;54.65;101524.44;5038549;28;20185;-70
2021/07/23 08:59:34;;;;;;;7.37;6.40;;;;;;;19.62;57.37;101526.06;5037793;28;20277;-69
2021/07/23 09:02:00;;;;;;;8.90;6.40;;;;;;;19.43;57.88;101525.47;5046103;28;20447;-70
2021/07/23 09:04:32;;;;;;;7.60;6.57;;;;;;;20.08;56.14;101525.34;5048183;28;20206;-69
2021/07/23 09:07:15;;;;;;;6.47;5.87;;;;;;;20.13;55.90;101518.22;5064087;28;20446;-71
2021/07/23 09:09:52;;;;;;;7.67;6.80;;;;;;;20.62;55.27;101521.72;5052189;28;20431;-70
2021/07/23 09:12:18;;;;;;;7.83;7.13;;;;;;;20.39;55.79;101524.81;5056834;28;20436;-70
2021/07/23 09:14:43;;;;;;;7.03;6.43;;;;;;;19.79;56.94;101528.44;5049782;28;20486;-70
2021/07/23 09:17:08;;;;;;;7.40;6.70;;;;;;;19.67;57.17;101529.50;5051403;28;20202;-71
2021/07/23 09:19:33;;;;;;;7.33;6.73;;;;;;;20.46;54.46;101520.28;5058614;28;20185;-69
2021/07/23 09:21:59;;;;;;;9.90;7.17;;;;;;;20.70;54.21;101526.88;5057909;28;20252;-70
2021/07/23 09:24:25;;;;;;;7.67;6.83;;;;;;;20.76;53.82;101523.25;5040885;28;20214;-69
2021/07/23 09:26:51;;;;;;;9.33;6.80;;;;;;;20.35;55.15;101520.47;5038482;28;20170;-69
2021/07/23 09:29:17;;;;;;;8.10;7.30;;;;;;;20.82;53.28;101520.44;5037839;28;20219;-69
2021/07/23 09:32:11;;;;;;;7.90;7.17;;;;;;;20.94;54.28;101514.03;5037958;28;20448;-68
2021/07/23 09:34:36;;;;;;;8.07;6.50;;;;;;;21.60;52.01;101506.41;5039575;28;20657;-67
2021/07/23 09:37:11;;;;;;;24.53;8.50;;;;;;;21.64;51.91;101503.63;5038003;28;20409;-66
2021/07/23 09:39:37;;;;;;;7.10;6.40;;;;;;;21.75;51.52;101500.69;5037953;28;20276;-71
2021/07/23 09:42:03;;;;;;;8.50;7.80;;;;;;;22.00;50.61;101494.75;5053015;28;20438;-71
2021/07/23 09:44:28;;;;;;;8.37;7.30;;;;;;;21.35;51.33;101505.16;5051649;28;20698;-71
2021/07/23 09:46:54;;;;;;;8.03;7.33;;;;;;;21.38;52.23;101501.56;5045068;28;20178;-70
2021/07/23 09:49:22;;;;;;;10.50;7.73;;;;;;;21.47;50.98;101509.31;5036567;28;20205;-71
2021/07/23 09:51:48;;;;;;;8.50;7.70;;;;;;;21.11;51.79;101500.41;5042973;28;20260;-68
2021/07/23 09:54:13;;;;;;;8.47;7.63;;;;;;;22.25;49.81;101494.13;5037986;28;20516;-68
2021/07/23 09:56:39;;;;;;;7.50;6.90;;;;;;;21.77;50.23;101501.53;5039452;28;20882;-68
2021/07/23 09:59:10;;;;;;;7.90;7.20;;;;;;;22.01;49.83;101496.50;5042968;28;20571;-68
2021/07/23 10:01:39;;;;;;;8.30;7.50;;;;;;;21.85;49.34;101491.59;5037674;28;20166;-68
2021/07/23 10:04:08;;;;;;;8.43;7.30;;;;;;;22.73;48.14;101488.34;5037373;28;20461;-68
2021/07/23 10:06:44;;;;;;;8.60;7.13;;;;;;;22.03;49.93;101487.59;5053051;28;20450;-68
2021/07/23 10:09:10;;;;;;;6.53;6.03;;;;;;;21.97;49.73;101492.19;5053185;28;20842;-68
2021/07/23 10:11:38;;;;;;;7.37;6.67;;;;;;;22.27;48.85;101486.97;5037288;28;20544;-67
2021/07/23 10:14:04;;;;;;;7.77;6.43;;;;;;;22.23;48.92;101480.00;5036936;28;20447;-67
2021/07/23 10:16:32;;;;;;;7.00;6.37;;;;;;;22.36;48.65;101479.63;5037620;28;20448;-67
2021/07/23 10:18:59;;;;;;;6.60;6.00;;;;;;;21.24;52.30;101482.44;5039702;28;20186;-68
2021/07/23 10:21:24;;;;;;;7.00;6.40;;;;;;;21.66;50.76;101490.31;5037793;28;20479;-67
2021/07/23 10:23:49;;;;;;;6.50;6.00;;;;;;;21.56;50.83;101491.47;5039623;28;20476;-68
2021/07/23 10:26:15;;;;;;;7.10;6.40;;;;;;;21.86;50.46;101481.84;5050805;28;20589;-71
2021/07/23 10:28:43;;;;;;;8.17;6.27;;;;;;;21.64;51.08;101493.00;5057422;28;20169;-67
2021/07/23 10:31:18;;;;;;;6.50;5.90;;;;;;;21.35;51.42;101483.06;5036658;28;20170;-68
2021/07/23 10:33:59;;;;;;;6.40;5.80;;;;;;;21.52;50.77;101480.00;5037311;28;20420;-67
2021/07/23 10:36:27;;;;;;;6.43;5.87;;;;;;;21.79;50.53;101480.28;5037248;28;20409;-68
2021/07/23 10:39:04;;;;;;;6.40;5.80;;;;;;;21.85;51.50;101488.94;5051322;28;20829;-67
2021/07/23 10:41:33;;;;;;;7.00;6.37;;;;;;;21.53;51.96;101485.31;5055151;28;20674;-69
2021/07/23 10:43:59;;;;;;;7.13;6.43;;;;;;;21.07;52.24;101480.16;5055992;28;20566;-70
2021/07/23 10:46:47;;;;;;;6.23;5.73;;;;;;;21.25;52.64;101486.84;5038101;28;20440;-68
2021/07/23 10:49:28;;;;;;;6.93;5.97;;;;;;;21.25;52.42;101478.88;5045613;28;20201;-68
2021/07/23 10:52:01;;;;;;;6.70;6.10;;;;;;;21.53;51.38;101474.69;5049750;28;20838;-67
2021/07/23 10:54:28;;;;;;;6.33;5.77;;;;;;;22.05;50.67;101466.31;5037212;28;20675;-69
2021/07/23 10:57:11;;;;;;;6.03;5.43;;;;;;;22.34;49.42;101467.31;5046336;28;20496;-68
2021/07/23 10:59:40;;;;;;;6.97;5.90;;;;;;;23.13;48.04;101459.72;5042601;28;20455;-69
2021/07/23 11:02:05;;;;;;;7.20;6.17;;;;;;;22.88;47.73;101458.66;5044146;28;20810;-69
2021/07/23 11:04:32;;;;;;;6.73;6.13;;;;;;;22.92;48.38;101463.88;5052625;28;20569;-68
2021/07/23 11:07:01;;;;;;;7.87;5.50;;;;;;;22.48;48.46;101461.63;5059626;28;20198;-69
2021/07/23 11:09:31;;;;;;;6.50;5.83;;;;;;;22.27;49.28;101468.38;5059387;28;20424;-69
2021/07/23 11:11:56;;;;;;;6.27;5.70;;;;;;;22.56;49.10;101466.72;5058173;28;20906;-69
2021/07/23 11:14:22;;;;;;;5.73;5.23;;;;;;;22.65;48.47;101461.13;5053864;28;20450;-66
2021/07/23 11:16:47;;;;;;;5.90;5.40;;;;;;;22.75;48.00;101459.94;5044729;28;20221;-65
2021/07/23 11:19:17;;;;;;;8.30;5.67;;;;;;;22.31;47.80;101464.72;5041171;28;20170;-64
2021/07/23 11:21:42;;;;;;;6.37;5.80;;;;;;;22.53;48.24;101463.22;5042866;28;20554;-64